Time;durP1;ratioP1;P1;durP2;ratioP2;P2;SDS_P1;SDS_P2;PMS_P1;PMS_P2;Temp;Humidity;BMP_temperature;BMP_pressure;BME280_temperature;BME280_humidity;BME280_pressure;Samples;Min_cycle;Max_cycle;Signal;HPM_P1;HPM_P2
2021/01/08 00:00:29;;;;;;;39.60;26.88;;;-0.60;95.40;;;;;;5077846;28;20455;-86
2021/01/08 00:02:56;;;;;;;42.08;27.23;;;-0.60;95.40;;;;;;5076362;28;20401;-86
2021/01/08 00:05:25;;;;;;;41.78;27.60;;;-0.60;95.40;;;;;;5078033;28;21207;-87
2021/01/08 00:07:51;;;;;;;39.03;26.63;;;-0.60;95.30;;;;;;5076620;28;20414;-87
2021/01/08 00:10:18;;;;;;;43.05;27.35;;;-0.60;95.30;;;;;;5078207;28;20417;-87
2021/01/08 00:12:45;;;;;;;42.63;27.02;;;-0.60;95.30;;;;;;5075373;28;20434;-87
2021/01/08 00:15:12;;;;;;;41.40;26.38;;;-0.60;95.40;;;;;;5078396;28;20386;-87
2021/01/08 00:17:38;;;;;;;40.47;26.63;;;-0.60;95.30;;;;;;5094103;28;20758;-86
2021/01/08 00:20:06;;;;;;;46.35;28.63;;;-0.60;95.40;;;;;;5095793;28;20442;-86
2021/01/08 00:22:34;;;;;;;44.40;28.05;;;-0.60;95.40;;;;;;5068826;28;20438;-86
2021/01/08 00:25:00;;;;;;;41.83;27.88;;;-0.60;95.50;;;;;;5091639;28;20435;-87
2021/01/08 00:27:27;;;;;;;42.40;27.65;;;-0.60;95.50;;;;;;5075700;28;20421;-86
2021/01/08 00:29:53;;;;;;;44.53;28.53;;;-0.60;95.50;;;;;;5077643;28;20908;-86
2021/01/08 00:32:21;;;;;;;45.10;29.10;;;-0.60;95.60;;;;;;5076402;28;20444;-85
2021/01/08 00:34:48;;;;;;;47.47;28.83;;;-0.70;95.60;;;;;;5067154;28;20404;-86
2021/01/08 00:37:15;;;;;;;47.40;28.25;;;-0.50;95.70;;;;;;5075087;28;20423;-86
2021/01/08 00:39:44;;;;;;;42.42;28.08;;;-0.60;95.60;;;;;;5075371;28;20485;-86
2021/01/08 00:42:11;;;;;;;44.97;27.67;;;-0.60;95.50;;;;;;5078103;28;20492;-86
2021/01/08 00:44:40;;;;;;;48.28;28.33;;;-0.50;95.60;;;;;;5092890;28;20402;-86
2021/01/08 00:47:07;;;;;;;42.97;27.80;;;-0.60;95.70;;;;;;5095396;28;20868;-86
2021/01/08 00:49:36;;;;;;;40.90;26.90;;;-0.60;95.60;;;;;;5092980;28;20872;-87
2021/01/08 00:52:06;;;;;;;44.35;27.50;;;-0.60;95.60;;;;;;5077789;28;20952;-86
2021/01/08 00:54:32;;;;;;;41.70;27.23;;;-0.60;95.60;;;;;;5067737;28;20419;-86
2021/01/08 00:56:59;;;;;;;41.15;27.02;;;-0.50;95.60;;;;;;5057455;28;20475;-86
2021/01/08 00:59:26;;;;;;;44.10;26.98;;;-0.50;95.50;;;;;;5060183;28;20424;-86
2021/01/08 01:01:52;;;;;;;44.13;28.30;;;-0.50;95.60;;;;;;5077208;28;20436;-86
2021/01/08 01:04:19;;;;;;;45.78;28.67;;;-0.50;95.50;;;;;;5075086;28;20440;-86
2021/01/08 01:06:48;;;;;;;43.70;28.42;;;-0.50;95.60;;;;;;5095353;28;20413;-86
2021/01/08 01:09:15;;;;;;;46.83;30.38;;;-0.50;95.70;;;;;;5077096;28;21057;-86
2021/01/08 01:11:43;;;;;;;50.42;29.98;;;-0.60;95.60;;;;;;5074794;28;20442;-86
2021/01/08 01:14:10;;;;;;;46.38;29.73;;;-0.60;95.70;;;;;;5077240;28;20418;-86
2021/01/08 01:16:37;;;;;;;49.87;30.77;;;-0.50;95.70;;;;;;5074539;28;20422;-86
2021/01/08 01:19:04;;;;;;;45.90;29.60;;;-0.50;95.70;;;;;;5077206;28;20420;-86
2021/01/08 01:21:31;;;;;;;45.42;29.27;;;-0.50;95.70;;;;;;5074525;28;20414;-86
2021/01/08 01:23:57;;;;;;;45.78;29.55;;;-0.40;95.70;;;;;;5076776;28;20406;-86
2021/01/08 01:26:24;;;;;;;47.35;28.75;;;-0.50;95.70;;;;;;5067034;28;20419;-86
2021/01/08 01:28:51;;;;;;;41.40;28.00;;;-0.50;95.70;;;;;;5076903;28;20795;-86
2021/01/08 01:31:17;;;;;;;46.58;27.15;;;-0.50;95.80;;;;;;5074598;28;20459;-86
2021/01/08 01:33:44;;;;;;;37.83;25.80;;;-0.50;95.80;;;;;;5094645;28;20402;-86
2021/01/08 01:36:11;;;;;;;35.50;23.08;;;-0.40;95.70;;;;;;5074568;28;20453;-86
2021/01/08 01:38:38;;;;;;;35.33;23.85;;;-0.50;95.40;;;;;;5076529;28;20434;-86
2021/01/08 01:41:05;;;;;;;35.75;23.88;;;-0.50;95.30;;;;;;5094392;28;20421;-87
2021/01/08 01:43:33;;;;;;;36.37;24.10;;;-0.50;95.40;;;;;;5092491;28;20406;-87
2021/01/08 01:46:01;;;;;;;34.22;23.65;;;-0.50;95.30;;;;;;5076262;28;20414;-85
2021/01/08 01:48:28;;;;;;;38.60;24.25;;;-0.50;95.20;;;;;;5070484;28;20404;-85
2021/01/08 01:50:57;;;;;;;34.80;24.10;;;-0.50;95.20;;;;;;5056340;28;20403;-86
2021/01/08 01:53:24;;;;;;;35.00;23.87;;;-0.50;95.30;;;;;;5054142;28;20424;-86
2021/01/08 01:55:51;;;;;;;39.47;24.83;;;-0.50;95.30;;;;;;5055909;28;20431;-86
2021/01/08 01:58:21;;;;;;;38.65;23.65;;;-0.50;95.30;;;;;;5064362;28;20454;-86
2021/01/08 02:00:47;;;;;;;39.47;25.50;;;-0.60;95.30;;;;;;5076329;28;20398;-87
2021/01/08 02:03:32;;;;;;;39.17;25.95;;;-0.50;95.20;;;;;;5067838;28;20419;-87
2021/01/08 02:06:07;;;;;;;41.15;26.23;;;-0.60;95.30;;;;;;5056323;28;20449;-86
2021/01/08 02:08:39;;;;;;;37.33;25.83;;;-0.60;95.30;;;;;;5061695;28;20421;-86
2021/01/08 02:11:14;;;;;;;40.10;27.05;;;-0.60;95.50;;;;;;5093850;28;20406;-86
2021/01/08 02:13:42;;;;;;;43.30;27.90;;;-0.70;95.50;;;;;;5090129;28;20465;-87
2021/01/08 02:16:12;;;;;;;43.97;27.15;;;-0.60;95.60;;;;;;5093214;28;20441;-87
2021/01/08 02:18:40;;;;;;;42.05;27.02;;;-0.70;95.60;;;;;;5073597;28;20417;-87
2021/01/08 02:21:20;;;;;;;39.95;26.83;;;-0.70;95.60;;;;;;5093104;28;20402;-86
2021/01/08 02:24:13;;;;;;;38.58;26.30;;;-0.60;95.60;;;;;;5088883;28;20410;-86
2021/01/08 02:26:42;;;;;;;41.30;27.42;;;-0.60;95.60;;;;;;5065935;28;20415;-86
2021/01/08 02:29:10;;;;;;;41.33;26.83;;;-0.60;95.70;;;;;;5056178;28;20465;-86
2021/01/08 02:31:38;;;;;;;42.03;27.92;;;-0.70;95.50;;;;;;5075438;28;20451;-86
2021/01/08 02:34:06;;;;;;;40.17;26.98;;;-0.70;95.60;;;;;;5093125;28;20417;-87
2021/01/08 02:36:42;;;;;;;40.03;26.95;;;-0.70;95.50;;;;;;5091267;28;20491;-87
2021/01/08 02:39:10;;;;;;;41.75;26.92;;;-0.60;95.60;;;;;;5093067;28;20422;-87
2021/01/08 02:41:37;;;;;;;39.92;26.88;;;-0.70;95.60;;;;;;5065337;28;20462;-87
2021/01/08 02:44:05;;;;;;;39.15;25.73;;;-0.70;95.70;;;;;;5071627;28;20396;-86
2021/01/08 02:46:32;;;;;;;38.35;26.50;;;-0.70;95.60;;;;;;5069864;28;20815;-87
2021/01/08 02:48:59;;;;;;;42.47;27.73;;;-0.60;95.60;;;;;;5071700;28;20415;-87
2021/01/08 02:51:26;;;;;;;43.47;27.95;;;-0.60;95.60;;;;;;5072285;28;20407;-87
2021/01/08 02:53:57;;;;;;;40.58;27.23;;;-0.70;95.60;;;;;;5093179;28;20815;-87
2021/01/08 02:56:31;;;;;;;39.90;26.42;;;-0.70;95.50;;;;;;5073107;28;20462;-86
2021/01/08 02:58:58;;;;;;;40.97;27.33;;;-0.60;95.60;;;;;;5093034;28;20470;-86
2021/01/08 03:01:25;;;;;;;41.88;27.48;;;-0.70;95.70;;;;;;5072924;28;20401;-86
2021/01/08 03:03:52;;;;;;;41.83;27.53;;;-0.70;95.70;;;;;;5074526;28;20417;-87
2021/01/08 03:06:19;;;;;;;45.95;30.15;;;-0.70;95.70;;;;;;5090150;28;20411;-86
2021/01/08 03:08:47;;;;;;;46.13;30.17;;;-0.60;95.70;;;;;;5075049;28;20451;-87
2021/01/08 03:11:14;;;;;;;46.08;30.10;;;-0.60;95.80;;;;;;5093076;28;20404;-87
2021/01/08 03:13:42;;;;;;;45.67;28.88;;;-0.60;95.80;;;;;;5072901;28;20410;-86
2021/01/08 03:16:09;;;;;;;42.10;27.98;;;-0.70;95.80;;;;;;5075059;28;20487;-86
2021/01/08 03:18:36;;;;;;;42.42;28.52;;;-0.70;95.70;;;;;;5073121;28;20402;-86
2021/01/08 03:21:02;;;;;;;42.78;28.33;;;-0.70;95.60;;;;;;5074597;28;20455;-86
2021/01/08 03:23:29;;;;;;;42.53;28.80;;;-0.70;95.70;;;;;;5075491;28;20403;-87
2021/01/08 03:25:56;;;;;;;42.75;28.50;;;-0.60;95.70;;;;;;5054616;28;20449;-87
2021/01/08 03:28:22;;;;;;;41.93;27.17;;;-0.60;95.70;;;;;;5080563;28;20496;-87
2021/01/08 03:30:49;;;;;;;39.05;25.40;;;-0.70;95.70;;;;;;5076269;28;20618;-86
2021/01/08 03:33:15;;;;;;;40.72;26.25;;;-0.60;95.60;;;;;;5077174;28;20477;-86
2021/01/08 03:35:42;;;;;;;41.60;27.02;;;-0.70;95.60;;;;;;5079031;28;20475;-86
2021/01/08 03:38:09;;;;;;;41.15;26.50;;;-0.60;95.70;;;;;;5077199;28;20425;-86
2021/01/08 03:40:40;;;;;;;37.88;25.55;;;-0.70;95.60;;;;;;5078760;28;20414;-86
2021/01/08 03:43:10;;;;;;;40.03;25.70;;;-0.70;95.60;;;;;;5095425;28;20402;-86
2021/01/08 03:45:40;;;;;;;37.73;24.80;;;-0.70;95.60;;;;;;5058842;28;20399;-87
2021/01/08 03:48:09;;;;;;;34.47;23.10;;;-0.70;95.50;;;;;;5076462;28;20427;-87
2021/01/08 03:50:35;;;;;;;31.53;21.40;;;-0.60;95.50;;;;;;5075158;28;20410;-87
2021/01/08 03:53:02;;;;;;;33.00;22.17;;;-0.70;95.50;;;;;;5096869;28;20402;-86
2021/01/08 03:55:28;;;;;;;33.03;22.88;;;-0.70;95.60;;;;;;5094284;28;20452;-86
2021/01/08 03:57:58;;;;;;;34.80;23.50;;;-0.70;95.80;;;;;;5078663;28;20434;-86
2021/01/08 04:00:24;;;;;;;36.75;23.48;;;-0.70;95.50;;;;;;5076240;28;20409;-85
2021/01/08 04:02:51;;;;;;;35.67;24.25;;;-0.80;95.40;;;;;;5078665;28;20477;-86
2021/01/08 04:05:18;;;;;;;34.55;24.00;;;-0.80;95.30;;;;;;5068505;28;20822;-86
2021/01/08 04:07:44;;;;;;;36.00;24.67;;;-0.80;95.40;;;;;;5075793;28;20416;-86
2021/01/08 04:10:13;;;;;;;37.00;25.10;;;-0.80;95.30;;;;;;5056731;28;20453;-86
2021/01/08 04:12:39;;;;;;;37.60;25.83;;;-0.80;95.40;;;;;;5075687;28;20415;-86
2021/01/08 04:15:07;;;;;;;40.50;26.45;;;-0.80;95.40;;;;;;5057563;28;20403;-86
2021/01/08 04:17:33;;;;;;;41.63;26.52;;;-0.90;95.40;;;;;;5057908;28;20478;-86
2021/01/08 04:20:00;;;;;;;44.85;27.55;;;-0.80;95.50;;;;;;5075411;28;20400;-86
2021/01/08 04:22:28;;;;;;;41.88;27.38;;;-0.90;95.50;;;;;;5092678;28;20406;-86
2021/01/08 04:24:55;;;;;;;42.70;27.77;;;-0.80;95.50;;;;;;5077608;28;20402;-85
2021/01/08 04:27:21;;;;;;;45.08;28.95;;;-0.90;95.60;;;;;;5093722;28;20422;-86
2021/01/08 04:29:48;;;;;;;42.03;27.42;;;-0.90;95.70;;;;;;5077880;28;20952;-86
2021/01/08 04:32:15;;;;;;;45.58;28.50;;;-0.90;95.70;;;;;;5072353;28;20467;-85
2021/01/08 04:34:41;;;;;;;43.53;28.00;;;-0.90;95.70;;;;;;5077977;28;20908;-86
2021/01/08 04:37:10;;;;;;;43.85;27.52;;;-0.90;95.80;;;;;;5093075;28;20426;-86
2021/01/08 04:39:37;;;;;;;45.28;28.92;;;-0.80;95.80;;;;;;5077497;28;20399;-86
2021/01/08 04:42:04;;;;;;;44.37;28.97;;;-0.90;95.70;;;;;;5075294;28;20414;-87
2021/01/08 04:44:31;;;;;;;44.10;29.30;;;-0.90;95.90;;;;;;5095471;28;20410;-86
2021/01/08 04:46:58;;;;;;;44.35;28.63;;;-0.90;95.90;;;;;;5074499;28;20417;-87
2021/01/08 04:49:26;;;;;;;44.83;28.55;;;-0.90;95.90;;;;;;5077527;28;20503;-86
2021/01/08 04:51:56;;;;;;;45.87;29.57;;;-0.90;95.90;;;;;;5077653;28;20463;-87
2021/01/08 04:54:25;;;;;;;43.70;28.37;;;-0.90;95.90;;;;;;5092671;28;20459;-86
2021/01/08 04:56:54;;;;;;;44.08;29.70;;;-0.90;96.10;;;;;;5077308;28;20426;-86
2021/01/08 04:59:23;;;;;;;42.90;27.65;;;-0.90;96.20;;;;;;5058385;28;21057;-86
2021/01/08 05:01:52;;;;;;;43.40;27.88;;;-1.00;96.10;;;;;;5074923;28;20399;-87
2021/01/08 05:04:20;;;;;;;44.53;28.30;;;-1.00;96.00;;;;;;5082919;28;20958;-87
2021/01/08 05:06:47;;;;;;;37.92;25.90;;;-0.90;96.10;;;;;;5095127;28;20816;-86
2021/01/08 05:09:14;;;;;;;42.45;26.67;;;-1.00;96.00;;;;;;5074951;28;20410;-86
2021/01/08 05:11:44;;;;;;;41.85;27.98;;;-0.90;96.00;;;;;;5076760;28;20402;-86
2021/01/08 05:14:13;;;;;;;41.47;27.17;;;-1.00;96.10;;;;;;5059616;28;20417;-86
2021/01/08 05:16:40;;;;;;;40.70;26.23;;;-1.00;96.10;;;;;;5056826;28;20910;-86
2021/01/08 05:19:07;;;;;;;43.58;27.45;;;-1.00;96.10;;;;;;5059958;28;20402;-86
2021/01/08 05:21:34;;;;;;;41.73;26.57;;;-1.00;96.00;;;;;;5088544;28;20473;-86
2021/01/08 05:24:03;;;;;;;39.80;26.38;;;-1.10;95.90;;;;;;5093567;28;20404;-86
2021/01/08 05:26:30;;;;;;;41.67;26.33;;;-1.10;95.90;;;;;;5076418;28;20414;-86
2021/01/08 05:29:00;;;;;;;40.27;26.40;;;-1.10;95.90;;;;;;5076671;28;20410;-86
2021/01/08 05:31:31;;;;;;;43.75;27.52;;;-1.10;95.90;;;;;;5074735;28;20414;-85
2021/01/08 05:34:01;;;;;;;43.38;27.65;;;-1.20;96.10;;;;;;5094422;28;20433;-85
2021/01/08 05:36:28;;;;;;;40.10;26.23;;;-1.20;96.10;;;;;;5074755;28;20923;-85
2021/01/08 05:38:57;;;;;;;40.10;26.35;;;-1.10;96.10;;;;;;5076241;28;20459;-85
2021/01/08 05:41:25;;;;;;;42.45;27.33;;;-1.20;96.00;;;;;;5078818;28;20411;-86
2021/01/08 05:43:53;;;;;;;41.00;26.55;;;-1.20;96.00;;;;;;5074165;28;20400;-85
2021/01/08 05:46:25;;;;;;;42.28;26.67;;;-1.10;96.00;;;;;;5066302;28;20421;-85
2021/01/08 05:49:00;;;;;;;36.58;25.05;;;-1.20;96.00;;;;;;5076291;28;20417;-86
2021/01/08 05:51:30;;;;;;;38.55;24.10;;;-1.20;95.90;;;;;;5074278;28;20429;-86
2021/01/08 05:54:01;;;;;;;32.92;22.00;;;-1.20;95.80;;;;;;5093486;28;21146;-86
2021/01/08 05:56:34;;;;;;;34.17;22.02;;;-1.10;95.80;;;;;;5092061;28;20426;-85
2021/01/08 05:59:05;;;;;;;35.92;24.30;;;-1.20;95.60;;;;;;5075922;28;20455;-86
2021/01/08 06:01:33;;;;;;;37.80;24.37;;;-1.10;95.70;;;;;;5071661;28;20414;-86
2021/01/08 06:04:03;;;;;;;38.13;24.48;;;-1.10;95.60;;;;;;5075859;28;20424;-85
2021/01/08 06:06:41;;;;;;;38.90;25.40;;;-1.20;95.70;;;;;;5073323;28;20418;-85
2021/01/08 06:09:12;;;;;;;42.40;25.63;;;-1.20;95.70;;;;;;5075927;28;20410;-85
2021/01/08 06:11:43;;;;;;;38.67;25.63;;;-1.20;95.80;;;;;;5091847;28;20398;-85
2021/01/08 06:14:11;;;;;;;40.67;25.45;;;-1.20;95.90;;;;;;5076139;28;20449;-85
2021/01/08 06:16:42;;;;;;;41.78;25.92;;;-1.10;95.80;;;;;;5075244;28;20832;-86
2021/01/08 06:19:09;;;;;;;41.33;26.50;;;-1.20;95.80;;;;;;5072620;28;20465;-85
2021/01/08 06:21:38;;;;;;;39.08;25.73;;;-1.20;95.90;;;;;;5067315;28;20418;-85
2021/01/08 06:24:14;;;;;;;40.63;25.70;;;-1.20;95.90;;;;;;5091645;28;20402;-84
2021/01/08 06:26:41;;;;;;;39.47;25.92;;;-1.20;96.00;;;;;;5075769;28;20413;-83
2021/01/08 06:29:32;;;;;;;42.20;25.25;;;-1.20;96.00;;;;;;5058906;28;20455;-84
2021/01/08 06:32:16;;;;;;;40.92;25.45;;;-1.20;95.90;;;;;;5055992;28;20454;-86
2021/01/08 06:34:46;;;;;;;39.40;25.98;;;-1.10;95.80;;;;;;5070531;28;20507;-85
2021/01/08 06:37:14;;;;;;;41.50;26.90;;;-1.10;96.10;;;;;;5092737;28;20451;-86
2021/01/08 06:39:44;;;;;;;40.42;26.08;;;-1.10;95.90;;;;;;5073068;28;20417;-85
2021/01/08 06:42:25;;;;;;;40.10;25.77;;;-1.20;95.90;;;;;;5075955;28;20558;-86
2021/01/08 06:44:52;;;;;;;41.40;26.40;;;-1.10;95.90;;;;;;5072842;28;20397;-86
2021/01/08 06:47:21;;;;;;;41.45;26.73;;;-1.20;95.90;;;;;;5075493;28;20436;-86
2021/01/08 06:49:52;;;;;;;53.80;33.00;;;-1.20;96.00;;;;;;5072612;28;20470;-86
2021/01/08 06:52:23;;;;;;;51.80;32.78;;;-1.10;96.10;;;;;;5074422;28;20510;-83
2021/01/08 06:54:54;;;;;;;51.70;32.47;;;-1.20;96.10;;;;;;5071868;28;21261;-84
2021/01/08 06:57:22;;;;;;;45.55;30.38;;;-1.20;96.20;;;;;;5074867;28;20421;-83
2021/01/08 07:00:04;;;;;;;45.45;29.30;;;-1.20;96.20;;;;;;5072038;28;20406;-83
2021/01/08 07:02:32;;;;;;;41.25;26.45;;;-1.10;96.20;;;;;;5074373;28;20467;-83
2021/01/08 07:05:01;;;;;;;42.67;28.30;;;-1.10;96.00;;;;;;5082156;28;20493;-83
2021/01/08 07:07:29;;;;;;;44.95;28.88;;;-1.10;96.00;;;;;;5092160;28;20405;-83
2021/01/08 07:09:55;;;;;;;38.40;26.33;;;-1.00;95.80;;;;;;5089886;28;20398;-83
2021/01/08 07:12:23;;;;;;;43.23;27.30;;;-0.90;95.90;;;;;;5074264;28;20460;-83
2021/01/08 07:14:53;;;;;;;41.10;25.92;;;-0.80;95.40;;;;;;5074071;28;20471;-83
2021/01/08 07:17:32;;;;;;;40.67;24.50;;;-0.50;94.90;;;;;;5074839;28;20791;-83
2021/01/08 07:20:02;;;;;;;40.92;24.40;;;-0.60;94.50;;;;;;5092112;28;20883;-83
2021/01/08 07:22:39;;;;;;;35.45;23.08;;;-0.60;95.00;;;;;;5070922;28;20452;-83
2021/01/08 07:25:11;;;;;;;42.38;26.20;;;-0.60;94.70;;;;;;5074000;28;21199;-81
2021/01/08 07:27:43;;;;;;;49.13;29.63;;;-0.80;95.20;;;;;;5065053;28;20771;-82
2021/01/08 07:30:10;;;;;;;46.35;27.70;;;-0.80;95.40;;;;;;5074326;28;20451;-83
2021/01/08 07:32:40;;;;;;;49.33;28.70;;;-0.80;95.60;;;;;;5070285;28;20409;-84
2021/01/08 07:35:22;;;;;;;45.78;27.85;;;-0.90;95.60;;;;;;5092447;28;20485;-86
2021/01/08 07:38:01;;;;;;;41.80;26.52;;;-0.80;95.70;;;;;;5081734;28;20467;-86
2021/01/08 07:40:35;;;;;;;32.42;21.98;;;-0.80;95.60;;;;;;5092451;28;20411;-86
2021/01/08 07:43:12;;;;;;;37.55;22.55;;;-0.80;95.60;;;;;;5072292;28;20394;-86
2021/01/08 07:45:58;;;;;;;34.38;23.08;;;-0.80;95.60;;;;;;5074400;28;20891;-86
2021/01/08 07:48:34;;;;;;;33.35;22.35;;;-0.70;95.60;;;;;;5089878;28;20808;-85
2021/01/08 07:51:03;;;;;;;38.92;25.27;;;-0.70;95.70;;;;;;5074972;28;20402;-85
2021/01/08 07:53:45;;;;;;;39.00;24.70;;;-0.60;95.70;;;;;;5071643;28;20418;-85
2021/01/08 07:56:19;;;;;;;35.93;23.10;;;-0.60;95.70;;;;;;5088658;28;20402;-85
2021/01/08 07:58:57;;;;;;;33.27;21.67;;;-0.50;95.50;;;;;;5080884;28;20939;-84
2021/01/08 08:01:23;;;;;;;35.92;21.52;;;-0.50;95.40;;;;;;5072205;28;20408;-83
2021/01/08 08:04:04;;;;;;;31.70;21.38;;;-0.40;95.20;;;;;;5055227;28;20407;-84
2021/01/08 08:06:32;;;;;;;32.03;20.17;;;-0.40;95.20;;;;;;5062533;28;20858;-85
2021/01/08 08:09:00;;;;;;;33.17;20.53;;;-0.30;95.10;;;;;;5067522;28;20493;-84
2021/01/08 08:11:30;;;;;;;32.78;19.77;;;-0.20;95.10;;;;;;5074136;28;20425;-83
2021/01/08 08:13:57;;;;;;;32.17;19.55;;;-0.10;94.90;;;;;;5071045;28;20429;-83
2021/01/08 08:16:37;;;;;;;31.35;19.92;;;-0.10;94.80;;;;;;5091588;28;20412;-83
2021/01/08 08:19:06;;;;;;;27.77;17.40;;;0.00;94.70;;;;;;5075180;28;20463;-83
2021/01/08 08:21:33;;;;;;;25.50;17.08;;;0.10;94.50;;;;;;5077819;28;21212;-83
2021/01/08 08:24:02;;;;;;;25.00;17.20;;;0.10;94.10;;;;;;5057808;28;20414;-83
2021/01/08 08:26:34;;;;;;;24.63;16.38;;;0.10;94.30;;;;;;5057301;28;20418;-84
2021/01/08 08:29:10;;;;;;;25.48;17.38;;;0.20;93.90;;;;;;5076183;28;21250;-83
2021/01/08 08:31:39;;;;;;;24.08;16.42;;;0.20;93.80;;;;;;5087638;28;20848;-84
2021/01/08 08:34:11;;;;;;;19.67;14.10;;;0.20;93.70;;;;;;5077448;28;20463;-84
2021/01/08 08:36:39;;;;;;;23.83;14.60;;;0.20;93.80;;;;;;5073333;28;20475;-83
2021/01/08 08:39:15;;;;;;;21.02;15.15;;;0.30;93.40;;;;;;5078215;28;20412;-85
2021/01/08 08:41:46;;;;;;;25.67;14.90;;;0.30;93.50;;;;;;5074618;28;20455;-84
2021/01/08 08:44:18;;;;;;;21.13;14.55;;;0.40;93.50;;;;;;5077779;28;20418;-84
2021/01/08 08:46:52;;;;;;;19.60;14.37;;;0.50;93.40;;;;;;5063388;28;20451;-83
2021/01/08 08:49:20;;;;;;;21.40;15.20;;;0.50;93.60;;;;;;5086505;28;20428;-84
2021/01/08 08:52:05;;;;;;;20.50;14.45;;;0.50;93.80;;;;;;5091590;28;20490;-83
2021/01/08 08:54:38;;;;;;;20.92;13.82;;;0.60;93.40;;;;;;5095125;28;20410;-83
2021/01/08 08:57:06;;;;;;;18.55;13.77;;;0.70;93.30;;;;;;5073910;28;20426;-83
2021/01/08 08:59:45;;;;;;;20.13;13.80;;;0.70;93.00;;;;;;5076952;28;20861;-82
2021/01/08 09:02:15;;;;;;;18.40;13.40;;;0.80;93.00;;;;;;5074468;28;20417;-82
2021/01/08 09:04:56;;;;;;;18.35;12.35;;;0.90;93.10;;;;;;5073208;28;20778;-82
2021/01/08 09:07:30;;;;;;;16.85;12.20;;;1.00;92.50;;;;;;5064935;28;20425;-83
2021/01/08 09:10:11;;;;;;;20.17;12.50;;;1.20;91.60;;;;;;5074840;28;20411;-84
2021/01/08 09:12:56;;;;;;;18.08;12.68;;;1.10;92.10;;;;;;5072370;28;20420;-84
2021/01/08 09:15:31;;;;;;;14.60;10.90;;;1.10;92.20;;;;;;5056804;28;20447;-85
2021/01/08 09:18:26;;;;;;;21.17;16.33;;;1.00;91.90;;;;;;5063830;28;20456;-85
2021/01/08 09:21:12;;;;;;;16.80;12.52;;;1.10;92.20;;;;;;5095024;28;20402;-84
2021/01/08 09:23:58;;;;;;;17.23;11.32;;;1.20;92.00;;;;;;5090972;28;20426;-84
2021/01/08 09:26:29;;;;;;;14.90;10.90;;;1.20;92.00;;;;;;5076696;28;20405;-84
2021/01/08 09:28:58;;;;;;;17.27;11.82;;;1.30;91.90;;;;;;5092602;28;20398;-84
2021/01/08 09:31:43;;;;;;;18.67;14.00;;;1.30;91.60;;;;;;5095295;28;20402;-85
2021/01/08 09:34:11;;;;;;;17.17;12.40;;;1.30;91.90;;;;;;5064089;28;20411;-86
2021/01/08 09:36:40;;;;;;;16.50;12.48;;;1.40;91.70;;;;;;5057164;28;20489;-85
2021/01/08 09:39:10;;;;;;;13.85;10.10;;;1.50;91.90;;;;;;5054940;28;20545;-84
2021/01/08 09:41:39;;;;;;;14.13;9.55;;;1.60;91.60;;;;;;5056672;28;21030;-85
2021/01/08 09:44:08;;;;;;;13.70;9.57;;;1.70;91.10;;;;;;5054518;28;20878;-84
2021/01/08 09:46:57;;;;;;;13.50;9.35;;;1.80;91.20;;;;;;5090083;28;20413;-84
2021/01/08 09:49:44;;;;;;;14.50;9.20;;;2.00;90.40;;;;;;5074116;28;20405;-84
2021/01/08 09:52:12;;;;;;;17.42;10.48;;;2.00;90.00;;;;;;5093513;28;20482;-84
2021/01/08 09:54:43;;;;;;;18.00;10.80;;;2.00;90.20;;;;;;5091166;28;20397;-84
2021/01/08 09:57:22;;;;;;;16.40;10.05;;;2.10;90.30;;;;;;5076076;28;20880;-84
2021/01/08 09:59:57;;;;;;;16.27;9.55;;;2.20;90.20;;;;;;5090526;28;20430;-84
2021/01/08 10:02:38;;;;;;;15.35;9.10;;;2.30;89.30;;;;;;5075630;28;20398;-84
2021/01/08 10:05:12;;;;;;;15.38;9.30;;;2.30;89.10;;;;;;5054934;28;20531;-84
2021/01/08 10:07:43;;;;;;;14.40;8.90;;;2.20;90.00;;;;;;5065615;28;20423;-84
2021/01/08 10:10:11;;;;;;;14.00;9.43;;;2.20;90.40;;;;;;5071383;28;20407;-84
2021/01/08 10:12:49;;;;;;;15.52;9.30;;;2.20;90.40;;;;;;5055841;28;20458;-85
2021/01/08 10:15:17;;;;;;;13.85;9.25;;;2.30;90.50;;;;;;5054065;28;20450;-85
2021/01/08 10:17:46;;;;;;;16.48;9.15;;;2.40;90.10;;;;;;5073465;28;20423;-84
2021/01/08 10:20:30;;;;;;;14.63;9.02;;;2.60;90.50;;;;;;5050377;28;20427;-86
2021/01/08 10:22:59;;;;;;;12.57;8.73;;;2.90;89.30;;;;;;5071367;28;20496;-88
2021/01/08 10:25:30;;;;;;;13.95;8.90;;;3.10;87.40;;;;;;5064944;28;20453;-87
2021/01/08 10:28:17;;;;;;;11.93;8.50;;;3.50;85.10;;;;;;5036661;28;20413;-85
2021/01/08 10:30:46;;;;;;;13.27;8.65;;;3.80;85.60;;;;;;5046761;28;20472;-86
2021/01/08 10:33:23;;;;;;;13.93;8.35;;;4.30;83.50;;;;;;5052513;28;20422;-86
2021/01/08 10:35:55;;;;;;;11.38;8.23;;;4.70;80.70;;;;;;5048482;28;20409;-85
2021/01/08 10:38:22;;;;;;;12.38;8.30;;;4.70;79.70;;;;;;5046598;28;20436;-83
2021/01/08 10:40:49;;;;;;;11.35;8.23;;;4.60;79.50;;;;;;5072437;28;20877;-85
2021/01/08 10:43:16;;;;;;;12.77;8.52;;;4.50;79.50;;;;;;5070444;28;20412;-86
2021/01/08 10:45:44;;;;;;;11.70;8.45;;;4.20;81.30;;;;;;5055643;28;20914;-88
2021/01/08 10:48:11;;;;;;;12.33;8.13;;;4.00;81.90;;;;;;5070284;28;20407;-83
2021/01/08 10:50:38;;;;;;;13.25;9.20;;;3.90;82.00;;;;;;5054737;28;20396;-83
2021/01/08 10:53:04;;;;;;;15.52;8.52;;;3.80;82.50;;;;;;5046385;28;20409;-83
2021/01/08 10:55:31;;;;;;;13.43;9.02;;;3.90;82.10;;;;;;5071567;28;20407;-83
2021/01/08 10:57:58;;;;;;;11.30;8.35;;;3.80;83.40;;;;;;5072466;28;20424;-82
2021/01/08 11:00:25;;;;;;;12.57;8.40;;;3.70;83.20;;;;;;5072636;28;20457;-82
2021/01/08 11:02:52;;;;;;;13.07;8.25;;;3.60;83.80;;;;;;5052962;28;20445;-82
2021/01/08 11:05:20;;;;;;;12.57;8.10;;;3.50;83.60;;;;;;5061404;28;20418;-82
2021/01/08 11:07:46;;;;;;;13.93;8.20;;;3.40;83.40;;;;;;5057468;28;20403;-82
2021/01/08 11:10:15;;;;;;;12.57;8.70;;;3.30;83.80;;;;;;5071620;28;20417;-83
2021/01/08 11:12:43;;;;;;;12.75;8.73;;;3.20;84.70;;;;;;5069067;28;20422;-84
2021/01/08 11:15:09;;;;;;;11.70;8.68;;;3.10;85.10;;;;;;5066766;28;20412;-86
2021/01/08 11:17:36;;;;;;;13.13;9.07;;;3.20;84.60;;;;;;5075044;28;20422;-87
2021/01/08 11:20:03;;;;;;;12.85;8.75;;;3.40;83.30;;;;;;5072521;28;20815;-83
2021/01/08 11:22:33;;;;;;;14.23;9.77;;;3.60;82.30;;;;;;5074225;28;20436;-83
2021/01/08 11:25:02;;;;;;;18.92;12.07;;;3.50;82.50;;;;;;5082188;28;20490;-85
2021/01/08 11:27:29;;;;;;;21.25;13.02;;;3.40;81.80;;;;;;5072384;28;20438;-84
2021/01/08 11:29:58;;;;;;;19.00;12.98;;;3.60;80.80;;;;;;5057139;28;20487;-83
2021/01/08 11:32:25;;;;;;;18.58;13.32;;;3.70;81.00;;;;;;5074435;28;20405;-83
2021/01/08 11:34:51;;;;;;;22.52;13.55;;;3.90;80.00;;;;;;5071562;28;20395;-83
2021/01/08 11:37:18;;;;;;;20.38;14.02;;;3.90;79.10;;;;;;5062195;28;20475;-84
2021/01/08 11:39:46;;;;;;;22.40;14.40;;;3.90;78.00;;;;;;5074352;28;20417;-83
2021/01/08 11:42:15;;;;;;;22.10;14.40;;;3.60;78.70;;;;;;5071234;28;20406;-83
2021/01/08 11:44:45;;;;;;;21.92;14.63;;;3.70;80.20;;;;;;5073846;28;20879;-82
2021/01/08 11:47:12;;;;;;;23.73;15.55;;;3.80;79.90;;;;;;5089562;28;20501;-82
2021/01/08 11:49:39;;;;;;;20.98;14.77;;;3.90;80.40;;;;;;5074081;28;20807;-82
2021/01/08 11:52:06;;;;;;;22.90;14.77;;;4.50;78.90;;;;;;5071494;28;20406;-82
2021/01/08 11:54:32;;;;;;;22.00;15.05;;;4.90;76.90;;;;;;5096365;28;20408;-82
2021/01/08 11:57:06;;;;;;;25.15;15.63;;;5.30;76.70;;;;;;5075591;28;20425;-82
2021/01/08 11:59:32;;;;;;;21.80;14.73;;;5.70;76.60;;;;;;5095824;28;20406;-82
2021/01/08 12:02:03;;;;;;;22.10;14.50;;;6.40;73.80;;;;;;5086803;28;20403;-82
2021/01/08 12:04:31;;;;;;;23.92;15.55;;;6.70;69.10;;;;;;5075269;28;20456;-82
2021/01/08 12:07:02;;;;;;;23.80;16.23;;;6.50;68.20;;;;;;5059471;28;20412;-83
2021/01/08 12:09:29;;;;;;;23.80;16.05;;;5.90;69.60;;;;;;5095904;28;20413;-82
2021/01/08 12:12:00;;;;;;;24.90;15.45;;;5.20;72.40;;;;;;5074804;28;20402;-82
2021/01/08 12:14:27;;;;;;;23.95;16.52;;;5.20;74.80;;;;;;5077824;28;20410;-82
2021/01/08 12:17:10;;;;;;;23.90;16.25;;;5.70;72.30;;;;;;5077670;28;20430;-82
2021/01/08 12:19:38;;;;;;;21.63;15.85;;;6.30;70.60;;;;;;5075309;28;20884;-84
2021/01/08 12:22:05;;;;;;;22.15;16.23;;;6.70;67.90;;;;;;5073298;28;20398;-84
2021/01/08 12:24:32;;;;;;;24.70;16.60;;;6.30;68.80;;;;;;5091538;28;20409;-84
2021/01/08 12:26:59;;;;;;;21.60;16.08;;;6.40;70.10;;;;;;5095702;28;20422;-84
2021/01/08 12:29:26;;;;;;;21.67;15.85;;;6.60;69.00;;;;;;5069595;28;20875;-84
2021/01/08 12:31:53;;;;;;;21.35;15.93;;;6.50;67.00;;;;;;5077561;28;20418;-84
2021/01/08 12:34:20;;;;;;;23.15;16.45;;;6.80;68.00;;;;;;5082201;28;20493;-84
2021/01/08 12:36:49;;;;;;;22.83;16.05;;;6.70;66.10;;;;;;5074538;28;20461;-84
2021/01/08 12:39:16;;;;;;;23.13;15.30;;;6.70;66.60;;;;;;5073346;28;20874;-84
2021/01/08 12:41:42;;;;;;;20.50;15.35;;;6.50;67.50;;;;;;5056866;28;20458;-84
2021/01/08 12:44:09;;;;;;;21.00;15.30;;;6.40;66.00;;;;;;5059234;28;20455;-84